Terminal Aerodrome Forecast
Issued by NWS Bismarck, ND

Home | Current Version | Previous Version | Text Only | Print | Product List | Glossary Off
Versions: 1 2 3 4 5 6 7 8 9 10 11 12 13 14 15 16 17 18 19 20 21 22 23 24 25 26 27 28 29 30 31

664
FTUS43 KBIS 272001 AAB
TAFISN
TAF AMD
KISN 272001Z 2720/2818 04009KT 5SM -SN OVC040
     FM272100 04008KT P6SM VCSH BKN015
     FM280000 04007KT P6SM BKN035
     FM280700 06004KT P6SM BKN020
     FM280900 10005KT P6SM BKN010=

USA.gov is the U.S. government's official web portal to all federal, state and local government web resources and services.